Hovedside
METAR-TAF:

METAR-TAF

Lufthavner :

Halli lufthavn

Jämsä, Finland

breddegrad: 61-51N, lengdegrad: 024-48E, høyde over havet: 143 m

Gjeldene værobservasjon

Denne rapporten ble laget for 29 minutter siden, klokken 04:50 UTC
Vind 17 kt fra Vest-nordvest
Temperatur 0°C
Luftfuktighet 59%
Trykk 1017 hPa
Sikt 10 km eller mer
ingen skyer under 1500 m og ingen bygeskyer

METAR: EFHA 220450Z AUTO 30017KT CAVOK 00/M07 Q1017

Tid: 07:19 (05:19 UTC)

Varsel

Denne rapporten ble laget for 2 timer og 50 minutter siden, klokken 02:29 UTC
Varsel gyldig fra 22. klokken 03 UTC til 22. klokken 12 UTC
Vind 18 kt fra Vest-nordvest
Sikt 10 km eller mer
ingen skyer under 1500 m og ingen bygeskyer
Midlertidig
fra 22. klokken 03 UTC til 22. klokken 10 UTC
Vind 18 kt fra Vest-nordvest med vindkast opp mot 28 kt

TAF: EFHA 220229Z 2203/2212 30018KT CAVOK TEMPO 2203/2210 30018G28KT

Værobservasjoner og værvarsel for over 4000 flyplasser (METAR- og TAF-rapporter).

Tilgjengelige stasjoner er representert av de røde og gule prikkene på kartet.

Hold musepekeren over prikken for å se navnet på stasjonen.

Klikk så for å se værobservasjoner og -varsler.

For å forandre kartet kan du klikke på den grønne knappen med svart kryss for å zoome inn, på den grønne knappen med strek for å zoome ut, eller på de grønne pilene for å se tilstøtende kart.


METAR-TAF: